createdAt,value
2019-03-11T00:01:59.076Z,1.62
2019-03-11T00:04:26.295Z,1.47
2019-03-11T00:06:53.309Z,2.42
2019-03-11T00:09:19.618Z,1.52
2019-03-11T00:11:46.238Z,1.45
2019-03-11T00:14:12.666Z,1.47
2019-03-11T00:16:38.997Z,1.75
2019-03-11T00:19:05.291Z,3.33
2019-03-11T00:21:31.689Z,1.62
2019-03-11T00:23:57.982Z,1.85
2019-03-11T00:26:24.271Z,6.50
2019-03-11T00:28:50.623Z,2.25
2019-03-11T00:31:17.013Z,3.33
2019-03-11T00:33:43.306Z,2.20
2019-03-11T00:36:09.622Z,4.60
2019-03-11T00:38:36.041Z,2.17
2019-03-11T00:41:02.457Z,2.83
2019-03-11T00:43:28.861Z,3.35
2019-03-11T00:45:55.150Z,2.35
2019-03-11T00:48:21.445Z,1.60
2019-03-11T00:50:47.845Z,1.12
2019-03-11T00:53:14.243Z,1.35
2019-03-11T00:55:40.574Z,1.47
2019-03-11T00:58:06.879Z,2.55
2019-03-11T01:00:35.449Z,3.25
2019-03-11T01:03:01.761Z,1.60
2019-03-11T01:05:28.058Z,1.40
2019-03-11T01:07:54.386Z,1.22
2019-03-11T01:10:20.776Z,2.20
2019-03-11T01:12:47.296Z,1.37
2019-03-11T01:15:14.016Z,2.40
2019-03-11T01:17:40.411Z,4.62
2019-03-11T01:20:09.049Z,1.55
2019-03-11T01:22:35.452Z,2.40
2019-03-11T01:25:01.854Z,1.55
2019-03-11T01:27:28.168Z,2.45
2019-03-11T01:29:54.562Z,2.87
2019-03-11T01:32:20.908Z,1.75
2019-03-11T01:34:47.290Z,2.58
2019-03-11T01:37:13.691Z,3.60
2019-03-11T01:39:40.004Z,1.62
2019-03-11T01:42:06.293Z,2.22
2019-03-11T01:44:32.622Z,2.60
2019-03-11T01:46:59.141Z,1.62
2019-03-11T01:49:25.450Z,1.82
2019-03-11T01:51:51.763Z,1.87
2019-03-11T01:54:18.146Z,2.52
2019-03-11T01:56:44.486Z,4.17
2019-03-11T01:59:10.881Z,2.02
2019-03-11T02:01:37.284Z,0.70
2019-03-11T02:04:03.694Z,1.57
2019-03-11T02:06:30.099Z,3.12
2019-03-11T02:08:56.433Z,1.05
2019-03-11T02:11:22.841Z,2.52
2019-03-11T02:13:49.141Z,2.15
2019-03-11T02:16:15.670Z,2.27
2019-03-11T02:18:41.958Z,3.58
2019-03-11T02:21:08.395Z,3.47
2019-03-11T02:23:34.706Z,1.42
2019-03-11T02:26:01.485Z,2.52
2019-03-11T02:28:27.901Z,1.62
2019-03-11T02:30:54.208Z,1.45
2019-03-11T02:33:20.662Z,0.82
2019-03-11T02:35:46.930Z,1.92
2019-03-11T02:38:13.533Z,1.67
2019-03-11T02:40:39.957Z,1.27
2019-03-11T02:43:06.459Z,1.98
2019-03-11T02:45:32.775Z,2.50
2019-03-11T02:47:59.178Z,4.85
2019-03-11T02:50:25.586Z,1.80
2019-03-11T02:52:52.002Z,0.55
2019-03-11T02:55:18.403Z,1.35
2019-03-11T02:57:44.850Z,1.37
2019-03-11T03:00:14.753Z,0.72
2019-03-11T03:02:45.664Z,0.70
2019-03-11T03:05:13.878Z,1.10
2019-03-11T03:07:40.185Z,2.85
2019-03-11T03:10:08.109Z,0.78
2019-03-11T03:12:34.531Z,2.20
2019-03-11T03:15:00.938Z,2.37
2019-03-11T03:17:27.233Z,1.98
2019-03-11T03:19:53.843Z,3.37
2019-03-11T03:22:20.170Z,2.45
2019-03-11T03:24:46.503Z,1.82
2019-03-11T03:27:12.769Z,3.27
2019-03-11T03:29:39.178Z,0.98
2019-03-11T03:32:05.486Z,2.05
2019-03-11T03:34:32.005Z,1.55
2019-03-11T03:36:58.903Z,3.52
2019-03-11T03:39:25.287Z,3.10
2019-03-11T03:41:51.695Z,2.20
2019-03-11T03:44:18.076Z,2.05
2019-03-11T03:46:44.353Z,3.00
2019-03-11T03:49:10.747Z,1.32
2019-03-11T03:51:37.045Z,2.58
2019-03-11T03:54:03.546Z,2.17
2019-03-11T03:56:31.127Z,1.70
2019-03-11T03:58:57.641Z,2.33
2019-03-11T04:01:24.031Z,2.20
2019-03-11T04:03:50.351Z,0.78
2019-03-11T04:06:16.754Z,2.35
2019-03-11T04:08:43.192Z,2.20
2019-03-11T04:11:09.701Z,2.58
2019-03-11T04:13:36.111Z,2.65
2019-03-11T04:16:05.833Z,13.78
2019-03-11T04:18:52.505Z,12.20
2019-03-11T04:21:18.823Z,7.95
2019-03-11T04:23:51.306Z,2.85
2019-03-11T04:26:17.546Z,4.67
2019-03-11T04:28:43.854Z,5.72
2019-03-11T04:31:10.638Z,8.08
2019-03-11T04:33:37.182Z,6.55
2019-03-11T04:36:03.479Z,1.82
2019-03-11T04:38:30.083Z,2.95
2019-03-11T04:40:56.507Z,2.37
2019-03-11T04:43:22.920Z,3.95
2019-03-11T04:45:49.343Z,6.35
2019-03-11T04:48:16.078Z,3.27
2019-03-11T04:50:42.584Z,2.30
2019-03-11T04:53:09.027Z,2.27
2019-03-11T04:55:35.759Z,2.17
2019-03-11T04:58:04.234Z,1.82
2019-03-11T05:00:31.577Z,3.00
2019-03-11T05:02:57.966Z,1.67
2019-03-11T05:05:24.386Z,1.80
2019-03-11T05:08:00.244Z,2.40
2019-03-11T05:10:25.119Z,2.70
2019-03-11T05:12:51.523Z,2.25
2019-03-11T05:15:17.842Z,2.15
2019-03-11T05:17:44.478Z,5.40
2019-03-11T05:20:14.886Z,3.17
2019-03-11T05:22:41.338Z,3.15
2019-03-11T05:25:10.746Z,2.02
2019-03-11T05:27:40.138Z,2.17
2019-03-11T05:30:19.537Z,1.17
2019-03-11T05:32:45.825Z,1.35
2019-03-11T05:35:12.255Z,1.92
2019-03-11T05:37:38.545Z,3.12
2019-03-11T05:40:13.053Z,1.00
2019-03-11T05:42:39.371Z,1.25
2019-03-11T05:45:08.381Z,1.32
2019-03-11T05:47:34.799Z,2.52
2019-03-11T05:50:01.098Z,1.02
2019-03-11T05:52:27.393Z,1.57
2019-03-11T05:54:53.822Z,1.90
2019-03-11T05:57:20.119Z,2.60
2019-03-11T05:59:46.617Z,1.45
2019-03-11T06:02:13.019Z,1.67
2019-03-11T06:04:39.418Z,0.68
2019-03-11T06:07:05.835Z,1.95
2019-03-11T06:09:32.458Z,3.30
2019-03-11T06:11:58.997Z,2.00
2019-03-11T06:14:25.409Z,1.55
2019-03-11T06:16:51.831Z,1.20
2019-03-11T06:19:18.248Z,2.62
2019-03-11T06:21:47.104Z,1.22
2019-03-11T06:24:13.425Z,2.00
2019-03-11T06:26:39.821Z,2.27
2019-03-11T06:29:06.149Z,1.57
2019-03-11T06:31:32.560Z,0.90
2019-03-11T06:33:58.872Z,1.87
2019-03-11T06:36:25.378Z,0.95
2019-03-11T06:38:51.784Z,2.47
2019-03-11T06:41:18.101Z,2.90
2019-03-11T06:43:44.637Z,2.60
2019-03-11T06:46:11.012Z,2.30
2019-03-11T06:48:37.325Z,2.25
2019-03-11T06:51:04.088Z,2.27
2019-03-11T06:53:30.462Z,2.83
2019-03-11T06:55:56.985Z,4.55
2019-03-11T06:58:23.596Z,1.87
2019-03-11T07:00:50.023Z,2.98
2019-03-11T07:03:16.591Z,2.80
2019-03-11T07:05:43.296Z,2.58
2019-03-11T07:08:09.734Z,2.00
2019-03-11T07:10:36.125Z,7.33
2019-03-11T07:13:02.548Z,8.75
2019-03-11T07:15:28.863Z,6.00
2019-03-11T07:17:55.155Z,6.75
2019-03-11T07:20:21.474Z,4.58
2019-03-11T07:22:47.897Z,3.17
2019-03-11T07:25:16.094Z,3.85
2019-03-11T07:27:42.423Z,3.85
2019-03-11T07:30:18.085Z,5.62
2019-03-11T07:32:44.746Z,5.28
2019-03-11T07:35:11.134Z,3.83
2019-03-11T07:37:37.444Z,4.15
2019-03-11T07:40:06.971Z,3.33
2019-03-11T07:42:33.261Z,3.85
2019-03-11T07:44:59.574Z,3.72
2019-03-11T07:47:25.869Z,2.12
2019-03-11T07:49:52.366Z,3.83
2019-03-11T07:52:18.939Z,3.58
2019-03-11T07:54:45.290Z,6.08
2019-03-11T07:57:12.008Z,4.25
2019-03-11T07:59:38.234Z,3.77
2019-03-11T08:02:04.642Z,2.37
2019-03-11T08:04:30.959Z,1.65
2019-03-11T08:06:57.567Z,4.17
2019-03-11T08:09:23.994Z,3.33
2019-03-11T08:11:50.407Z,2.25
2019-03-11T08:14:16.997Z,4.55
2019-03-11T08:16:43.659Z,5.72
2019-03-11T08:19:10.055Z,2.35
2019-03-11T08:21:36.529Z,3.27
2019-03-11T08:24:03.022Z,3.70
2019-03-11T08:26:29.418Z,2.55
2019-03-11T08:28:55.843Z,2.58
2019-03-11T08:31:22.129Z,2.20
2019-03-11T08:33:48.577Z,3.17
2019-03-11T08:36:14.872Z,3.20
2019-03-11T08:38:41.165Z,3.83
2019-03-11T08:41:07.591Z,1.75
2019-03-11T08:43:34.255Z,4.33
2019-03-11T08:46:00.573Z,4.67
2019-03-11T08:48:26.879Z,7.00
2019-03-11T08:50:53.278Z,7.12
2019-03-11T08:53:19.717Z,5.15
2019-03-11T08:55:46.120Z,2.77
2019-03-11T08:58:12.560Z,5.75
2019-03-11T09:00:45.295Z,5.80
2019-03-11T09:03:21.812Z,2.60
2019-03-11T09:05:54.045Z,5.05
2019-03-11T09:08:25.998Z,3.50
2019-03-11T09:10:57.248Z,5.30
2019-03-11T09:13:30.653Z,2.62
2019-03-11T09:16:02.733Z,2.90
2019-03-11T09:18:34.991Z,4.85
2019-03-11T09:21:05.692Z,2.00
2019-03-11T09:23:38.091Z,1.55
2019-03-11T09:26:10.356Z,2.83
2019-03-11T09:28:36.683Z,2.75
2019-03-11T09:31:03.449Z,6.20
2019-03-11T09:33:30.062Z,2.50
2019-03-11T09:35:56.722Z,1.92
2019-03-11T09:38:23.009Z,3.77
2019-03-11T09:40:49.422Z,1.98
2019-03-11T09:43:15.843Z,3.52
2019-03-11T09:45:42.235Z,1.82
2019-03-11T09:48:08.943Z,1.85
2019-03-11T09:50:35.366Z,4.60
2019-03-11T09:53:01.762Z,2.33
2019-03-11T09:55:28.736Z,8.25
2019-03-11T09:57:55.602Z,9.85
2019-03-11T10:00:24.927Z,7.87
2019-03-11T10:02:53.108Z,6.87
2019-03-11T10:05:19.803Z,4.47
2019-03-11T10:07:46.356Z,4.37
2019-03-11T10:10:15.157Z,2.92
2019-03-11T10:12:41.567Z,6.58
2019-03-11T10:15:13.562Z,3.30
2019-03-11T10:17:39.985Z,3.67
2019-03-11T10:20:09.277Z,5.08
2019-03-11T10:22:38.307Z,2.95
2019-03-11T10:25:11.589Z,5.35
2019-03-11T10:27:48.596Z,3.52
2019-03-11T10:30:22.970Z,8.30
2019-03-11T10:32:49.403Z,2.85
2019-03-11T10:35:31.395Z,3.77
2019-03-11T10:37:48.069Z,2.83
2019-03-11T10:40:22.706Z,3.12
2019-03-11T10:42:49.448Z,4.30
2019-03-11T10:45:16.270Z,2.00
2019-03-11T10:47:42.661Z,2.75
2019-03-11T10:50:12.196Z,3.52
2019-03-11T10:52:38.719Z,2.55
2019-03-11T10:55:11.252Z,5.40
2019-03-11T10:57:37.895Z,0.82
2019-03-11T11:00:11.270Z,3.58
2019-03-11T11:02:38.703Z,1.90
2019-03-11T11:05:08.221Z,1.47
2019-03-11T11:07:34.832Z,7.40
2019-03-11T11:10:03.185Z,1.25
2019-03-11T11:12:30.443Z,4.37
2019-03-11T11:14:56.853Z,2.40
2019-03-11T11:17:23.165Z,2.83
2019-03-11T11:19:49.840Z,1.60
2019-03-11T11:22:16.158Z,1.65
2019-03-11T11:24:42.559Z,2.05
2019-03-11T11:27:08.862Z,1.47
2019-03-11T11:29:35.173Z,0.65
2019-03-11T11:32:01.649Z,1.62
2019-03-11T11:34:28.164Z,1.07
2019-03-11T11:36:54.454Z,4.10
2019-03-11T11:39:20.865Z,2.62
2019-03-11T11:41:48.073Z,2.17
2019-03-11T11:44:14.536Z,1.77
2019-03-11T11:46:40.890Z,1.90
2019-03-11T11:49:07.214Z,0.95
2019-03-11T11:51:33.510Z,2.05
2019-03-11T11:53:59.934Z,1.90
2019-03-11T11:56:26.461Z,2.40
2019-03-11T11:58:52.997Z,8.60
2019-03-11T12:01:19.346Z,7.60
2019-03-11T12:03:47.404Z,6.50
2019-03-11T12:06:13.809Z,8.80
2019-03-11T12:08:40.114Z,5.22
2019-03-11T12:11:06.795Z,3.72
2019-03-11T12:13:33.480Z,2.50
2019-03-11T12:15:59.976Z,5.92
2019-03-11T12:18:26.383Z,4.03
2019-03-11T12:20:52.682Z,2.30
2019-03-11T12:23:18.974Z,4.40
2019-03-11T12:25:45.411Z,2.17
2019-03-11T12:28:11.810Z,2.30
2019-03-11T12:30:38.139Z,4.45
2019-03-11T12:33:04.779Z,1.52
2019-03-11T12:35:31.076Z,1.98
2019-03-11T12:37:57.496Z,2.60
2019-03-11T12:40:23.907Z,2.77
2019-03-11T12:42:50.207Z,2.77
2019-03-11T12:45:18.127Z,1.95
2019-03-11T12:47:44.526Z,2.72
2019-03-11T12:50:20.911Z,1.90
2019-03-11T12:52:47.305Z,6.37
2019-03-11T12:55:13.603Z,2.52
2019-03-11T12:57:40.145Z,2.25
2019-03-11T13:00:15.373Z,1.85
2019-03-11T13:02:41.804Z,6.83
2019-03-11T13:05:09.317Z,5.15
2019-03-11T13:07:35.613Z,11.65
2019-03-11T13:10:05.134Z,5.25
2019-03-11T13:12:31.581Z,5.05
2019-03-11T13:14:57.899Z,3.75
2019-03-11T13:17:24.651Z,5.17
2019-03-11T13:19:51.142Z,3.25
2019-03-11T13:22:17.594Z,2.92
2019-03-11T13:24:44.236Z,2.95
2019-03-11T13:27:10.632Z,3.85
2019-03-11T13:29:36.950Z,3.10
2019-03-11T13:32:03.407Z,1.52
2019-03-11T13:34:29.901Z,2.05
2019-03-11T13:36:56.405Z,5.67
2019-03-11T13:39:22.710Z,3.52
2019-03-11T13:41:49.056Z,3.37
2019-03-11T13:44:15.359Z,2.83
2019-03-11T13:46:42.097Z,2.47
2019-03-11T13:49:08.614Z,2.25
2019-03-11T13:51:35.012Z,1.37
2019-03-11T13:54:01.572Z,2.85
2019-03-11T13:56:27.873Z,2.12
2019-03-11T13:58:54.200Z,3.15
2019-03-11T14:01:21.397Z,2.10
2019-03-11T14:03:47.856Z,1.98
2019-03-11T14:06:14.454Z,2.30
2019-03-11T14:08:40.878Z,4.10
2019-03-11T14:11:07.306Z,1.02
2019-03-11T14:13:33.606Z,1.70
2019-03-11T14:16:00.126Z,2.52
2019-03-11T14:18:26.513Z,2.20
2019-03-11T14:20:52.918Z,3.33
2019-03-11T14:23:19.721Z,2.85
2019-03-11T14:25:46.007Z,3.80
2019-03-11T14:28:13.963Z,4.53
2019-03-11T14:30:40.716Z,1.35
2019-03-11T14:33:07.446Z,3.47
2019-03-11T14:35:33.877Z,2.40
2019-03-11T14:38:00.169Z,2.67
2019-03-11T14:40:26.567Z,1.70
2019-03-11T14:42:52.971Z,6.37
2019-03-11T14:45:20.717Z,5.28
2019-03-11T14:47:47.051Z,4.15
2019-03-11T14:50:13.706Z,5.65
2019-03-11T14:52:40.178Z,2.55
2019-03-11T14:55:08.404Z,3.10
2019-03-11T14:57:34.685Z,2.25
2019-03-11T15:00:01.128Z,5.95
2019-03-11T15:02:27.707Z,1.87
2019-03-11T15:04:54.091Z,5.20
2019-03-11T15:07:20.554Z,3.22
2019-03-11T15:09:51.293Z,2.75
2019-03-11T15:12:21.686Z,2.10
2019-03-11T15:14:48.030Z,3.20
2019-03-11T15:17:15.216Z,1.95
2019-03-11T15:19:41.798Z,1.98
2019-03-11T15:22:08.289Z,1.65
2019-03-11T15:24:34.604Z,1.90
2019-03-11T15:27:01.050Z,3.40
2019-03-11T15:29:27.294Z,2.12
2019-03-11T15:31:53.616Z,3.77
2019-03-11T15:34:20.330Z,3.15
2019-03-11T15:36:46.781Z,8.28
2019-03-11T15:39:13.078Z,3.55
2019-03-11T15:41:39.392Z,2.55
2019-03-11T15:44:05.898Z,5.58
2019-03-11T15:46:39.262Z,5.30
2019-03-11T15:49:00.440Z,2.70
2019-03-11T15:51:36.239Z,2.92
2019-03-11T15:53:54.839Z,1.95
2019-03-11T15:56:23.721Z,3.10
2019-03-11T15:58:50.030Z,2.83
2019-03-11T16:01:16.320Z,3.22
2019-03-11T16:03:42.856Z,6.40
2019-03-11T16:06:14.263Z,1.82
2019-03-11T16:08:40.702Z,3.95
2019-03-11T16:11:07.098Z,2.52
2019-03-11T16:13:33.433Z,2.62
2019-03-11T16:15:59.836Z,3.45
2019-03-11T16:18:26.197Z,2.08
2019-03-11T16:20:52.711Z,2.15
2019-03-11T16:23:19.109Z,1.25
2019-03-11T16:25:45.428Z,1.87
2019-03-11T16:28:11.822Z,2.17
2019-03-11T16:30:43.191Z,1.37
2019-03-11T16:33:17.664Z,1.90
2019-03-11T16:35:44.509Z,1.55
2019-03-11T16:38:10.830Z,4.17
2019-03-11T16:40:37.228Z,1.37
2019-03-11T16:43:03.521Z,2.72
2019-03-11T16:45:30.031Z,1.07
2019-03-11T16:47:58.121Z,3.25
2019-03-11T16:50:25.806Z,2.30
2019-03-11T16:52:52.179Z,1.02
2019-03-11T16:55:39.784Z,3.27
2019-03-11T16:58:06.261Z,1.50
2019-03-11T17:00:37.076Z,2.02
2019-03-11T17:03:03.410Z,3.60
2019-03-11T17:05:29.917Z,2.47
2019-03-11T17:07:56.246Z,2.10
2019-03-11T17:10:23.842Z,0.70
2019-03-11T17:12:50.133Z,1.92
2019-03-11T17:15:16.663Z,0.62
2019-03-11T17:17:43.528Z,2.55
2019-03-11T17:20:14.678Z,1.00
2019-03-11T17:22:41.083Z,1.37
2019-03-11T17:25:10.101Z,1.80
2019-03-11T17:27:36.441Z,1.72
2019-03-11T17:30:06.430Z,1.90
2019-03-11T17:32:33.173Z,1.75
2019-03-11T17:34:59.870Z,0.35
2019-03-11T17:37:26.573Z,0.45
2019-03-11T17:39:52.882Z,1.12
2019-03-11T17:42:19.297Z,1.37
2019-03-11T17:44:48.136Z,0.98
2019-03-11T17:47:14.426Z,1.40
2019-03-11T17:49:41.059Z,1.52
2019-03-11T17:52:07.363Z,1.05
2019-03-11T17:54:33.982Z,1.12
2019-03-11T17:57:00.730Z,9.03
2019-03-11T17:59:27.378Z,2.47
2019-03-11T18:01:53.789Z,4.15
2019-03-11T18:04:20.298Z,3.47
2019-03-11T18:06:47.081Z,3.47
2019-03-11T18:09:13.585Z,3.92
2019-03-11T18:11:40.308Z,20.08
2019-03-11T18:14:06.920Z,16.45
2019-03-11T18:16:33.448Z,8.28
2019-03-11T18:18:59.961Z,13.55
2019-03-11T18:21:26.586Z,21.10
2019-03-11T18:23:52.904Z,11.15
2019-03-11T18:26:19.427Z,20.25
2019-03-11T18:28:46.029Z,9.88
2019-03-11T18:31:12.677Z,16.23
2019-03-11T18:33:38.993Z,9.90
2019-03-11T18:36:07.496Z,14.18
2019-03-11T18:38:33.783Z,8.43
2019-03-11T18:41:00.050Z,7.70
2019-03-11T18:43:26.590Z,8.70
2019-03-11T18:45:53.023Z,9.33
2019-03-11T18:48:19.447Z,5.35
2019-03-11T18:50:45.948Z,2.60
2019-03-11T18:53:12.572Z,4.33
2019-03-11T18:55:38.990Z,6.20
2019-03-11T18:58:05.513Z,4.78
2019-03-11T19:00:32.127Z,8.88
2019-03-11T19:02:58.432Z,6.55
2019-03-11T19:05:24.848Z,3.50
2019-03-11T19:07:51.484Z,8.03
2019-03-11T19:10:19.408Z,5.25
2019-03-11T19:12:45.679Z,5.10
2019-03-11T19:15:17.651Z,2.92
2019-03-11T19:17:44.324Z,8.75
2019-03-11T19:20:14.341Z,6.83
2019-03-11T19:22:41.041Z,8.68
2019-03-11T19:25:08.240Z,5.80
2019-03-11T19:27:36.149Z,7.12
2019-03-11T19:30:11.593Z,6.00
2019-03-11T19:32:38.260Z,3.72
2019-03-11T19:35:06.266Z,3.80
2019-03-11T19:37:32.803Z,5.03
2019-03-11T19:39:59.214Z,5.03
2019-03-11T19:42:25.805Z,6.47
2019-03-11T19:44:52.540Z,4.35
2019-03-11T19:47:18.909Z,11.43
2019-03-11T19:49:45.170Z,9.65
2019-03-11T19:52:11.478Z,14.60
2019-03-11T19:54:37.985Z,10.65
2019-03-11T19:57:04.413Z,3.80
2019-03-11T19:59:31.077Z,6.10
2019-03-11T20:01:57.562Z,9.80
2019-03-11T20:04:23.839Z,3.85
2019-03-11T20:06:50.296Z,6.33
2019-03-11T20:09:16.714Z,5.25
2019-03-11T20:11:43.192Z,7.50
2019-03-11T20:14:09.559Z,6.22
2019-03-11T20:16:35.848Z,7.10
2019-03-11T20:19:02.493Z,4.62
2019-03-11T20:21:28.943Z,3.52
2019-03-11T20:23:55.459Z,3.42
2019-03-11T20:26:21.843Z,2.85
2019-03-11T20:28:48.221Z,3.55
2019-03-11T20:31:14.760Z,7.87
2019-03-11T20:33:41.129Z,3.05
2019-03-11T20:36:19.808Z,3.17
2019-03-11T20:38:35.563Z,3.33
2019-03-11T20:41:02.222Z,3.67
2019-03-11T20:43:28.685Z,2.70
2019-03-11T20:45:55.307Z,2.37
2019-03-11T20:48:21.667Z,3.37
2019-03-11T20:50:48.137Z,7.80
2019-03-11T20:53:14.471Z,7.17
2019-03-11T20:55:41.201Z,11.95
2019-03-11T20:58:08.012Z,7.08
2019-03-11T21:00:34.633Z,6.28
2019-03-11T21:03:00.933Z,8.98
2019-03-11T21:05:35.929Z,5.70
2019-03-11T21:08:02.371Z,5.28
2019-03-11T21:10:28.668Z,4.20
2019-03-11T21:12:55.317Z,8.55
2019-03-11T21:15:21.684Z,6.12
2019-03-11T21:17:48.405Z,6.00
2019-03-11T21:20:16.390Z,6.92
2019-03-11T21:22:42.870Z,5.60
2019-03-11T21:25:15.489Z,2.52
2019-03-11T21:27:41.738Z,2.58
2019-03-11T21:30:13.811Z,3.35
2019-03-11T21:32:40.089Z,2.95
2019-03-11T21:35:07.527Z,3.55
2019-03-11T21:37:34.115Z,2.90
2019-03-11T21:40:00.545Z,2.62
2019-03-11T21:42:27.309Z,2.45
2019-03-11T21:44:53.726Z,2.45
2019-03-11T21:47:20.283Z,4.92
2019-03-11T21:49:46.877Z,3.05
2019-03-11T21:52:13.399Z,3.25
2019-03-11T21:54:39.802Z,2.58
2019-03-11T21:57:06.206Z,2.45
2019-03-11T21:59:33.019Z,4.70
2019-03-11T22:01:59.543Z,5.12
2019-03-11T22:04:25.843Z,5.08
2019-03-11T22:06:52.127Z,3.10
2019-03-11T22:09:18.458Z,4.03
2019-03-11T22:11:45.061Z,2.72
2019-03-11T22:14:11.469Z,2.40
2019-03-11T22:16:37.768Z,2.52
2019-03-11T22:19:04.304Z,2.58
2019-03-11T22:21:30.718Z,3.50
2019-03-11T22:23:57.055Z,2.52
2019-03-11T22:26:23.464Z,2.98
2019-03-11T22:28:49.793Z,3.52
2019-03-11T22:31:16.092Z,2.98
2019-03-11T22:33:42.700Z,2.27
2019-03-11T22:36:09.000Z,2.58
2019-03-11T22:38:35.421Z,2.10
2019-03-11T22:41:01.824Z,5.37
2019-03-11T22:43:28.141Z,2.90
2019-03-11T22:45:54.434Z,2.37
2019-03-11T22:48:21.150Z,4.47
2019-03-11T22:50:47.661Z,3.08
2019-03-11T22:53:14.262Z,3.08
2019-03-11T22:55:40.577Z,3.20
2019-03-11T22:58:06.874Z,3.85
2019-03-11T23:00:40.999Z,2.40
2019-03-11T23:03:08.134Z,3.08
2019-03-11T23:05:34.436Z,2.00
2019-03-11T23:08:00.779Z,3.85
2019-03-11T23:10:27.160Z,3.00
2019-03-11T23:12:53.553Z,2.80
2019-03-11T23:15:20.156Z,2.20
2019-03-11T23:17:46.558Z,2.33
2019-03-11T23:20:12.879Z,2.72
2019-03-11T23:22:39.174Z,3.08
2019-03-11T23:25:07.257Z,2.83
2019-03-11T23:27:35.200Z,3.00
2019-03-11T23:30:03.790Z,2.47
2019-03-11T23:32:30.669Z,2.80
2019-03-11T23:34:57.086Z,3.47
2019-03-11T23:37:23.481Z,2.58
2019-03-11T23:39:49.905Z,3.00
2019-03-11T23:42:16.311Z,2.83
2019-03-11T23:44:42.758Z,4.55
2019-03-11T23:47:09.166Z,2.37
2019-03-11T23:49:35.557Z,2.83
2019-03-11T23:52:02.064Z,5.97
2019-03-11T23:54:28.797Z,3.75
2019-03-11T23:56:55.393Z,4.17
2019-03-11T23:59:21.691Z,3.35
